createdAt,value
2018-08-04T09:07:19.401Z,3.83
2018-08-04T09:09:48.575Z,3.65
2018-08-04T09:12:17.753Z,2.30
2018-08-04T09:14:46.930Z,2.40
2018-08-04T09:17:16.221Z,2.40
2018-08-04T09:19:45.431Z,2.75
2018-08-04T09:22:14.611Z,2.70
2018-08-04T09:24:43.830Z,2.62
2018-08-04T09:27:13.051Z,2.47
2018-08-04T09:29:42.263Z,2.20
2018-08-04T09:32:11.458Z,2.58
2018-08-04T09:34:40.700Z,2.70
2018-08-04T09:37:09.894Z,2.20
2018-08-04T09:39:39.174Z,2.35
2018-08-04T09:42:08.362Z,2.20
2018-08-04T09:44:44.372Z,2.22
2018-08-04T09:47:13.558Z,2.10
2018-08-04T09:49:42.846Z,2.20
2018-08-04T09:52:12.034Z,2.40
2018-08-04T09:54:41.202Z,2.12
2018-08-04T09:57:10.378Z,2.45
2018-08-04T09:59:39.579Z,2.77
2018-08-04T10:02:11.093Z,2.10
2018-08-04T10:04:40.667Z,2.08
2018-08-04T10:07:10.484Z,2.00
2018-08-04T10:09:39.683Z,2.02
2018-08-04T10:12:08.869Z,1.98
2018-08-04T10:14:38.078Z,2.20
2018-08-04T10:17:07.365Z,1.85
2018-08-04T10:19:36.545Z,2.30
2018-08-04T10:22:05.757Z,2.02
2018-08-04T10:24:34.984Z,2.20
2018-08-04T10:27:04.217Z,2.15
2018-08-04T10:29:33.575Z,1.77
2018-08-04T10:32:02.879Z,2.40
2018-08-04T10:34:31.988Z,2.12
2018-08-04T10:37:01.229Z,1.92
2018-08-04T10:39:30.449Z,2.00
2018-08-04T10:41:59.741Z,2.00
2018-08-04T10:44:28.990Z,1.62
2018-08-04T10:46:58.250Z,1.80
2018-08-04T10:49:27.476Z,1.50
2018-08-04T10:51:56.644Z,2.00
2018-08-04T10:54:28.043Z,2.27
2018-08-04T10:56:57.316Z,1.92
2018-08-04T10:59:26.564Z,2.10
2018-08-04T11:01:55.806Z,1.90
2018-08-04T11:04:25.383Z,2.00
2018-08-04T11:06:54.553Z,1.65
2018-08-04T11:09:23.759Z,1.60
2018-08-04T11:11:52.984Z,1.98
2018-08-04T11:14:22.186Z,2.45
2018-08-04T11:16:51.383Z,2.22
2018-08-04T11:19:20.582Z,2.50
2018-08-04T11:21:49.808Z,1.95
2018-08-04T11:24:19.016Z,2.45
2018-08-04T11:26:48.242Z,2.35
2018-08-04T11:29:17.476Z,2.30
2018-08-04T11:31:47.372Z,2.10
2018-08-04T11:34:16.598Z,2.17
2018-08-04T11:36:45.822Z,2.12
2018-08-04T11:39:15.004Z,2.50
2018-08-04T11:41:44.222Z,2.58
2018-08-04T11:44:13.700Z,2.15
2018-08-04T11:46:42.934Z,2.27
2018-08-04T11:49:12.223Z,2.20
2018-08-04T11:51:41.473Z,2.45
2018-08-04T11:54:10.589Z,2.33
2018-08-04T11:56:39.803Z,2.27
2018-08-04T11:59:09.033Z,2.92
2018-08-04T12:01:38.259Z,2.80
2018-08-04T12:04:07.539Z,2.10
2018-08-04T12:06:36.897Z,2.50
2018-08-04T12:09:09.302Z,2.62
2018-08-04T12:11:38.507Z,2.60
2018-08-04T12:14:08.430Z,2.80
2018-08-04T12:16:37.719Z,2.27
2018-08-04T12:19:06.924Z,2.37
2018-08-04T12:21:36.148Z,2.25
2018-08-04T12:24:05.390Z,2.83
2018-08-04T12:26:34.608Z,2.83
2018-08-04T12:29:03.779Z,2.10
2018-08-04T12:31:33.010Z,2.70
2018-08-04T12:34:02.279Z,2.15
2018-08-04T12:36:31.434Z,2.17
2018-08-04T12:39:00.575Z,2.08
2018-08-04T12:41:29.776Z,2.30
2018-08-04T12:43:58.987Z,2.40
2018-08-04T12:46:28.162Z,2.22
2018-08-04T12:48:57.379Z,2.17
2018-08-04T12:51:26.697Z,2.20
2018-08-04T12:53:55.862Z,2.20
2018-08-04T12:56:25.072Z,1.98
2018-08-04T12:58:54.246Z,2.42
2018-08-04T13:01:23.405Z,2.20
2018-08-04T13:03:52.580Z,2.42
2018-08-04T13:06:21.716Z,2.40
2018-08-04T13:08:50.937Z,2.55
2018-08-04T13:11:20.131Z,2.20
2018-08-04T13:13:49.286Z,2.15
2018-08-04T13:16:18.421Z,2.40
2018-08-04T13:18:47.576Z,2.83
2018-08-04T13:21:16.752Z,2.42
2018-08-04T13:23:45.906Z,2.12
2018-08-04T13:26:15.100Z,2.08
2018-08-04T13:28:44.239Z,1.82
2018-08-04T13:31:13.412Z,2.30
2018-08-04T13:33:42.576Z,1.80
2018-08-04T13:36:11.785Z,1.57
2018-08-04T13:38:40.943Z,2.00
2018-08-04T13:41:10.106Z,2.10
2018-08-04T13:43:39.307Z,2.22
2018-08-04T13:46:08.511Z,1.90
2018-08-04T13:48:37.699Z,2.30
2018-08-04T13:51:06.989Z,2.33
2018-08-04T13:53:36.217Z,2.40
2018-08-04T13:56:05.615Z,2.70
2018-08-04T13:58:34.997Z,3.10
2018-08-04T14:01:04.224Z,2.45
2018-08-04T14:03:33.389Z,2.20
2018-08-04T14:06:02.530Z,2.25
2018-08-04T14:08:31.689Z,2.00
2018-08-04T14:11:00.877Z,2.05
2018-08-04T14:13:30.049Z,2.12
2018-08-04T14:15:59.237Z,2.20
2018-08-04T14:18:28.457Z,2.17
2018-08-04T14:20:57.657Z,2.10
2018-08-04T14:23:26.829Z,1.90
2018-08-04T14:25:55.972Z,1.90
2018-08-04T14:28:25.209Z,2.25
2018-08-04T14:30:54.339Z,2.30
2018-08-04T14:33:23.515Z,2.50
2018-08-04T14:35:52.764Z,2.40
2018-08-04T14:38:21.956Z,2.40
2018-08-04T14:40:51.116Z,2.35
2018-08-04T14:43:20.274Z,1.93
2018-08-04T14:45:49.483Z,2.10
2018-08-04T14:48:18.678Z,1.90
2018-08-04T14:50:47.976Z,2.70
2018-08-04T14:53:17.112Z,3.90
2018-08-04T14:55:46.277Z,3.53
2018-08-04T14:58:15.434Z,3.77
2018-08-04T15:00:44.602Z,4.73
2018-08-04T15:03:13.760Z,6.00
2018-08-04T15:05:42.958Z,6.10
2018-08-04T15:08:12.127Z,7.30
2018-08-04T15:10:41.282Z,7.47
2018-08-04T15:13:10.450Z,6.20
2018-08-04T15:15:39.661Z,5.77
2018-08-04T15:18:08.848Z,5.70
2018-08-04T15:20:38.010Z,7.57
2018-08-04T15:23:07.185Z,8.13
2018-08-04T15:25:36.353Z,7.50
2018-08-04T15:28:05.620Z,10.00
2018-08-04T15:30:34.779Z,9.57
2018-08-04T15:33:03.983Z,8.97
2018-08-04T15:35:33.085Z,9.40
2018-08-04T15:38:02.283Z,9.67
2018-08-04T15:40:31.458Z,8.23
2018-08-04T15:43:00.613Z,8.33
2018-08-04T15:45:29.798Z,7.87
2018-08-04T15:47:58.980Z,7.60
2018-08-04T15:50:28.171Z,6.60
2018-08-04T15:52:57.361Z,6.33
2018-08-04T15:55:26.557Z,5.70
2018-08-04T15:57:55.751Z,6.00
2018-08-04T16:00:24.920Z,4.97
2018-08-04T16:02:54.091Z,5.93
2018-08-04T16:05:23.304Z,5.40
2018-08-04T16:07:52.465Z,5.90
2018-08-04T16:10:21.636Z,5.77
2018-08-04T16:12:50.888Z,5.67
2018-08-04T16:15:20.057Z,6.93
2018-08-04T16:17:49.316Z,6.27
2018-08-04T16:20:19.392Z,6.80
2018-08-04T16:22:48.652Z,6.50
2018-08-04T16:25:17.829Z,6.37
2018-08-04T16:27:46.994Z,5.77
2018-08-04T16:30:16.156Z,6.17
2018-08-04T16:32:45.344Z,6.10
2018-08-04T16:35:14.506Z,6.37
2018-08-04T16:37:43.656Z,7.10
2018-08-04T16:40:12.836Z,6.93
2018-08-04T16:42:42.039Z,7.13
2018-08-04T16:45:11.177Z,7.50
2018-08-04T16:47:40.346Z,6.03
2018-08-04T16:50:09.509Z,5.03
2018-08-04T16:52:38.658Z,4.93
2018-08-04T16:55:07.797Z,5.10
2018-08-04T16:57:36.990Z,5.37
2018-08-04T17:00:06.812Z,4.87
2018-08-04T17:02:36.026Z,5.10
2018-08-04T17:05:05.485Z,4.63
2018-08-04T17:07:34.695Z,4.33
2018-08-04T17:10:03.882Z,4.30
2018-08-04T17:12:33.132Z,4.27
2018-08-04T17:15:02.282Z,4.37
2018-08-04T17:17:31.466Z,4.20
2018-08-04T17:20:00.645Z,4.37
2018-08-04T17:22:29.817Z,4.20
2018-08-04T17:24:59.015Z,4.37
2018-08-04T17:27:28.240Z,4.30
2018-08-04T17:29:57.403Z,4.00
2018-08-04T17:32:26.581Z,4.20
2018-08-04T17:34:55.725Z,3.80
2018-08-04T17:37:24.977Z,4.03
2018-08-04T17:39:54.068Z,3.47
2018-08-04T17:42:23.242Z,3.23
2018-08-04T17:44:52.443Z,3.50
2018-08-04T17:47:21.600Z,2.53
2018-08-04T17:49:50.783Z,3.13
2018-08-04T17:52:19.989Z,3.50
2018-08-04T17:54:49.158Z,3.00
2018-08-04T17:57:18.381Z,3.00
2018-08-04T17:59:47.482Z,3.07
2018-08-04T18:02:16.645Z,3.37
2018-08-04T18:04:45.797Z,3.17
2018-08-04T18:07:14.959Z,2.97
2018-08-04T18:09:50.637Z,3.00
2018-08-04T18:12:19.798Z,2.83
2018-08-04T18:14:49.021Z,2.63
2018-08-04T18:17:18.152Z,3.50
2018-08-04T18:19:48.454Z,3.30
2018-08-04T18:22:17.574Z,3.20
2018-08-04T18:24:46.753Z,3.17
2018-08-04T18:27:15.953Z,3.30
2018-08-04T18:29:45.174Z,3.10
2018-08-04T18:32:14.334Z,2.77
2018-08-04T18:34:43.476Z,3.50
2018-08-04T18:37:12.659Z,3.63
2018-08-04T18:39:41.832Z,4.33
2018-08-04T18:42:10.982Z,3.30
2018-08-04T18:44:40.192Z,2.87
2018-08-04T18:47:09.843Z,3.17
2018-08-04T18:49:39.021Z,3.80
2018-08-04T18:52:08.255Z,3.30
2018-08-04T18:54:37.467Z,3.67
2018-08-04T18:57:06.661Z,3.90
2018-08-04T18:59:36.526Z,3.60
2018-08-04T19:02:05.775Z,3.50
2018-08-04T19:04:34.917Z,3.33
2018-08-04T19:07:04.092Z,3.10
2018-08-04T19:09:33.273Z,3.80
2018-08-04T19:12:02.517Z,3.40
2018-08-04T19:14:31.707Z,4.13
2018-08-04T19:17:00.875Z,4.10
2018-08-04T19:19:30.090Z,3.43
2018-08-04T19:21:59.264Z,3.80
2018-08-04T19:24:28.435Z,3.20
2018-08-04T19:26:57.632Z,3.70
2018-08-04T19:29:26.807Z,3.70
2018-08-04T19:31:56.063Z,4.03
2018-08-04T19:34:25.231Z,3.77
2018-08-04T19:36:54.684Z,3.73
2018-08-04T19:39:23.883Z,4.33
2018-08-04T19:41:53.056Z,4.40
2018-08-04T19:44:22.219Z,4.10
2018-08-04T19:46:51.374Z,4.10
2018-08-04T19:49:20.544Z,3.97
2018-08-04T19:51:49.707Z,4.37
2018-08-04T19:54:18.885Z,4.70
2018-08-04T19:56:48.036Z,4.50
2018-08-04T19:59:17.243Z,4.87
2018-08-04T20:01:46.401Z,4.20
2018-08-04T20:04:18.449Z,5.10
2018-08-04T20:06:47.639Z,4.90
2018-08-04T20:09:16.859Z,4.97
2018-08-04T20:11:46.034Z,4.90
2018-08-04T20:14:15.219Z,4.90
2018-08-04T20:16:44.404Z,4.90
2018-08-04T20:19:13.569Z,5.27
2018-08-04T20:21:42.764Z,4.97
2018-08-04T20:24:11.942Z,4.90
2018-08-04T20:26:41.142Z,5.53
2018-08-04T20:29:10.394Z,4.80
2018-08-04T20:31:39.597Z,4.60
2018-08-04T20:34:08.774Z,5.20
2018-08-04T20:36:37.960Z,4.97
2018-08-04T20:39:09.011Z,4.63
2018-08-04T20:41:38.244Z,5.80
2018-08-04T20:44:07.435Z,5.57
2018-08-04T20:46:36.632Z,5.73
2018-08-04T20:49:05.849Z,5.30
2018-08-04T20:51:35.038Z,4.80
2018-08-04T20:54:04.186Z,6.13
2018-08-04T20:56:33.362Z,5.57
2018-08-04T20:59:02.545Z,5.80
2018-08-04T21:01:42.168Z,5.90
2018-08-04T21:04:11.270Z,5.83
2018-08-04T21:06:40.431Z,5.70
2018-08-04T21:09:09.655Z,6.20
2018-08-04T21:11:46.274Z,5.97
2018-08-04T21:14:15.431Z,6.67
2018-08-04T21:16:44.573Z,6.83
2018-08-04T21:19:13.763Z,7.30
2018-08-04T21:21:42.901Z,6.67
2018-08-04T21:24:12.064Z,6.43
2018-08-04T21:26:41.253Z,7.03
2018-08-04T21:29:10.397Z,7.10
2018-08-04T21:31:39.594Z,6.90
2018-08-04T21:34:09.147Z,6.67
2018-08-04T21:36:38.323Z,7.13
2018-08-04T21:39:10.324Z,7.40
2018-08-04T21:41:39.532Z,7.90
2018-08-04T21:44:08.773Z,7.67
2018-08-04T21:46:46.812Z,7.07
2018-08-04T21:49:16.112Z,7.47
2018-08-04T21:51:46.431Z,6.83
2018-08-04T21:54:19.918Z,7.33
2018-08-04T21:56:45.858Z,6.80
2018-08-04T21:59:15.040Z,7.33
2018-08-04T22:01:49.631Z,7.20
2018-08-04T22:04:18.809Z,7.13
2018-08-04T22:07:58.022Z,7.03
2018-08-04T22:10:27.370Z,6.83
2018-08-04T22:12:56.928Z,6.67
2018-08-04T22:15:26.190Z,6.50
2018-08-04T22:17:55.389Z,6.83
2018-08-04T22:20:25.221Z,6.87
2018-08-04T22:22:54.418Z,6.27
2018-08-04T22:25:24.735Z,6.93
2018-08-04T22:27:54.227Z,7.23
2018-08-04T22:30:23.853Z,7.00
2018-08-04T22:32:53.161Z,7.93
2018-08-04T22:35:22.681Z,7.97
2018-08-04T22:37:51.867Z,7.70
2018-08-04T22:40:22.371Z,7.53
2018-08-04T22:42:51.527Z,7.23
2018-08-04T22:46:24.666Z,7.77
2018-08-04T22:48:54.665Z,7.93
2018-08-04T22:51:28.853Z,8.33
2018-08-04T22:53:58.015Z,7.87
2018-08-04T22:56:27.257Z,8.30
2018-08-04T22:58:56.420Z,7.87
2018-08-04T23:01:25.579Z,8.07
2018-08-04T23:03:54.733Z,8.50
2018-08-04T23:06:23.889Z,7.67
2018-08-04T23:08:53.044Z,8.20
2018-08-04T23:11:22.222Z,7.40
2018-08-04T23:13:51.379Z,7.20
2018-08-04T23:16:20.550Z,6.80
2018-08-04T23:18:49.724Z,6.70
2018-08-04T23:21:18.848Z,5.93
2018-08-04T23:23:48.062Z,5.60
2018-08-04T23:26:17.255Z,6.20
2018-08-04T23:28:46.420Z,5.93
2018-08-04T23:31:15.583Z,5.83
2018-08-04T23:33:44.740Z,5.53
2018-08-04T23:36:13.892Z,5.30
2018-08-04T23:38:43.068Z,5.67
2018-08-04T23:41:12.213Z,4.80
2018-08-04T23:43:41.463Z,4.40
2018-08-04T23:46:10.624Z,5.00
2018-08-04T23:48:39.788Z,4.70
2018-08-04T23:51:08.938Z,5.53
2018-08-04T23:53:38.109Z,4.67
2018-08-04T23:56:07.261Z,4.67
2018-08-04T23:58:36.430Z,4.80
